Ziguinchor, Senegal
Current Conditions -  °F | °C
As of 6:00 PM on Thursday 30 Oct 2014 (Local Time) from GOGG Reporting Station
Scattered Clouds Scattered Clouds  
Wind Chill: 88°   Ceiling: Unl
Heat Index: 100°   Visibility: 6mi
Dew Point: 77°   Wind: 2mph
Humidity: 70%   Direction: NA
Pressure: 29.91"   Gusts: NA
Location:  12.59°N, 16.29°W
Report Text: GOGG 301800Z VRB02KT 9999 SCT016TCU SCT130 31/25 Q1013
Loading
Personal Weather Stations






























Interactive Weather Map New forecast layout! Learn more

10-Day Weather Forecast

Advertisements
Track Severe Weather on mobile